Time;durP1;ratioP1;P1;durP2;ratioP2;P2;SDS_P1;SDS_P2;PMS_P1;PMS_P2;Temp;Humidity;BMP_temperature;BMP_pressure;BME280_temperature;BME280_humidity;BME280_pressure;Samples;Min_cycle;Max_cycle;Signal;HPM_P1;HPM_P2
2022/05/02 00:00:30;;;;;;;4.93;2.10;;;9.30;86.00;;;;;;5083206;28;20230;-78
2022/05/02 00:02:56;;;;;;;8.47;2.70;;;9.30;86.10;;;;;;5084555;28;20249;-78
2022/05/02 00:05:23;;;;;;;5.40;2.60;;;9.30;86.30;;;;;;5080836;28;20715;-78
2022/05/02 00:07:50;;;;;;;5.00;2.13;;;9.30;87.00;;;;;;5082680;28;20218;-78
2022/05/02 00:10:17;;;;;;;3.30;2.60;;;9.30;87.20;;;;;;5081200;28;20218;-77
2022/05/02 00:12:46;;;;;;;3.20;2.27;;;9.30;86.60;;;;;;5082778;28;20377;-78
2022/05/02 00:15:13;;;;;;;3.33;2.17;;;9.20;86.60;;;;;;5077645;28;20243;-78
2022/05/02 00:17:59;;;;;;;2.63;2.00;;;9.10;86.10;;;;;;5078527;28;20234;-77
2022/05/02 00:20:29;;;;;;;3.67;2.37;;;9.10;86.20;;;;;;5077214;28;20218;-77
2022/05/02 00:22:57;;;;;;;3.70;2.30;;;9.10;86.10;;;;;;5078642;28;20389;-78
2022/05/02 00:25:24;;;;;;;3.93;2.37;;;9.10;86.40;;;;;;5083548;28;20215;-77
2022/05/02 00:27:53;;;;;;;2.97;2.13;;;9.00;86.70;;;;;;5079223;28;20230;-78
2022/05/02 00:30:20;;;;;;;2.53;2.10;;;9.00;87.10;;;;;;5085654;28;20230;-78
2022/05/02 00:32:47;;;;;;;4.30;2.50;;;8.90;87.00;;;;;;5085501;28;20227;-78
2022/05/02 00:35:14;;;;;;;2.60;2.20;;;8.90;87.20;;;;;;5080322;28;20315;-78
2022/05/02 00:37:42;;;;;;;4.17;2.10;;;8.90;87.20;;;;;;5080230;28;20231;-78
2022/05/02 00:40:11;;;;;;;3.27;1.90;;;8.80;87.40;;;;;;5101738;28;20230;-78
2022/05/02 00:42:38;;;;;;;2.23;1.97;;;8.70;87.20;;;;;;5081603;28;20234;-78
2022/05/02 00:45:07;;;;;;;2.27;1.73;;;8.70;87.00;;;;;;5082367;28;20223;-78
2022/05/02 00:47:34;;;;;;;3.97;1.97;;;8.60;87.80;;;;;;5080488;28;20258;-78
2022/05/02 00:50:01;;;;;;;2.90;2.00;;;8.50;87.30;;;;;;5082753;28;20301;-78
2022/05/02 00:52:28;;;;;;;4.00;2.37;;;8.50;87.40;;;;;;5076560;28;20231;-78
2022/05/02 00:54:55;;;;;;;2.97;2.20;;;8.40;87.40;;;;;;5080804;28;20248;-78
2022/05/02 00:57:23;;;;;;;2.53;1.87;;;8.30;87.50;;;;;;5081358;28;20237;-78
2022/05/02 00:59:49;;;;;;;2.13;1.67;;;8.30;87.40;;;;;;5084517;28;20314;-78
2022/05/02 01:02:18;;;;;;;2.37;1.90;;;8.30;87.10;;;;;;5083278;28;20226;-78
2022/05/02 01:04:45;;;;;;;2.77;1.90;;;8.10;87.20;;;;;;5077236;28;20545;-77
2022/05/02 01:07:11;;;;;;;3.77;2.13;;;8.10;87.90;;;;;;5081432;28;20242;-77
2022/05/02 01:09:41;;;;;;;2.30;1.87;;;8.00;87.40;;;;;;5080795;28;20231;-78
2022/05/02 01:12:10;;;;;;;2.00;1.73;;;7.90;87.50;;;;;;5082416;28;20234;-78
2022/05/02 01:14:37;;;;;;;3.07;2.00;;;7.90;87.50;;;;;;5080354;28;20227;-78
2022/05/02 01:17:05;;;;;;;2.33;1.80;;;7.80;87.60;;;;;;5080726;28;20234;-78
2022/05/02 01:19:33;;;;;;;3.37;1.80;;;7.70;88.20;;;;;;5080740;28;20233;-78
2022/05/02 01:22:01;;;;;;;5.37;2.07;;;7.60;89.20;;;;;;5078955;28;20230;-78
2022/05/02 01:24:36;;;;;;;3.10;2.20;;;7.50;89.70;;;;;;5080480;28;21667;-78
2022/05/02 01:27:03;;;;;;;3.37;1.90;;;7.50;90.20;;;;;;5081127;28;20256;-78
2022/05/02 01:29:31;;;;;;;3.13;1.90;;;7.40;90.00;;;;;;5083784;28;20249;-78
2022/05/02 01:31:58;;;;;;;3.33;1.80;;;7.40;90.20;;;;;;5079959;28;20219;-78
2022/05/02 01:34:25;;;;;;;2.17;1.80;;;7.40;90.20;;;;;;5080070;28;20332;-78
2022/05/02 01:36:51;;;;;;;3.13;2.10;;;7.40;90.30;;;;;;5082945;28;20235;-78
2022/05/02 01:39:19;;;;;;;2.27;1.77;;;7.30;90.50;;;;;;5076903;28;20240;-78
2022/05/02 01:41:46;;;;;;;3.80;2.20;;;7.30;90.80;;;;;;5082664;28;20714;-77
2022/05/02 01:44:13;;;;;;;2.10;1.90;;;7.30;90.70;;;;;;5082203;28;20297;-78
2022/05/02 01:46:40;;;;;;;3.30;2.20;;;7.30;90.70;;;;;;5079551;28;20233;-77
2022/05/02 01:49:06;;;;;;;3.47;1.80;;;7.20;90.80;;;;;;5078444;28;20245;-77
2022/05/02 01:51:33;;;;;;;3.07;2.00;;;7.30;91.00;;;;;;5077904;28;20726;-77
2022/05/02 01:54:00;;;;;;;2.40;1.90;;;7.20;91.10;;;;;;5080363;28;20387;-77
2022/05/02 01:56:28;;;;;;;2.60;2.00;;;7.20;91.20;;;;;;5080310;28;20267;-77
2022/05/02 01:58:55;;;;;;;3.30;2.30;;;7.20;91.60;;;;;;5073034;28;20859;-78
2022/05/02 02:01:22;;;;;;;2.97;2.13;;;7.10;91.50;;;;;;5072325;28;20230;-78
2022/05/02 02:03:48;;;;;;;2.90;2.00;;;7.20;92.00;;;;;;5092476;28;20602;-79
2022/05/02 02:06:14;;;;;;;2.43;2.10;;;7.20;91.80;;;;;;5076323;28;20238;-79
2022/05/02 02:08:41;;;;;;;2.57;2.10;;;7.10;91.80;;;;;;5076846;28;20706;-79
2022/05/02 02:11:09;;;;;;;2.67;2.10;;;7.10;91.90;;;;;;5073806;28;21542;-79
2022/05/02 02:13:39;;;;;;;2.60;2.10;;;7.10;92.00;;;;;;5077171;28;20646;-79
2022/05/02 02:16:09;;;;;;;2.50;2.03;;;7.10;92.20;;;;;;5075502;28;20229;-80
2022/05/02 02:18:36;;;;;;;3.97;2.27;;;7.10;92.30;;;;;;5076179;28;20226;-78
2022/05/02 02:21:03;;;;;;;3.07;2.20;;;7.10;92.30;;;;;;5075344;28;20229;-79
2022/05/02 02:23:30;;;;;;;4.30;2.67;;;7.10;92.30;;;;;;5073300;28;20309;-79
2022/05/02 02:25:57;;;;;;;4.03;2.40;;;7.00;92.40;;;;;;5081238;28;20245;-79
2022/05/02 02:28:24;;;;;;;3.57;2.27;;;7.00;92.50;;;;;;5073185;28;20350;-79
2022/05/02 02:30:52;;;;;;;4.27;2.10;;;6.90;92.60;;;;;;5080707;28;20226;-80
2022/05/02 02:33:20;;;;;;;2.27;2.07;;;6.90;92.70;;;;;;5080343;28;20797;-79
2022/05/02 02:35:47;;;;;;;3.43;2.63;;;6.90;92.70;;;;;;5074633;28;20226;-81
2022/05/02 02:38:14;;;;;;;3.73;2.70;;;6.80;92.90;;;;;;5074892;28;20510;-81
2022/05/02 02:40:41;;;;;;;4.67;2.80;;;6.80;93.10;;;;;;5077405;28;20274;-81
2022/05/02 02:43:09;;;;;;;5.90;3.00;;;6.70;93.20;;;;;;5078616;28;20271;-81
2022/05/02 02:45:35;;;;;;;4.73;2.40;;;6.70;93.30;;;;;;5080549;28;20720;-80
2022/05/02 02:48:04;;;;;;;3.67;2.50;;;6.60;93.30;;;;;;5081116;28;20233;-81
2022/05/02 02:50:31;;;;;;;3.10;2.80;;;6.50;93.50;;;;;;5078834;28;20336;-81
2022/05/02 02:52:58;;;;;;;5.57;2.70;;;6.50;93.50;;;;;;5078104;28;20249;-81
2022/05/02 02:55:24;;;;;;;2.97;2.60;;;6.40;93.70;;;;;;5081421;28;20237;-80
2022/05/02 02:57:51;;;;;;;4.73;2.37;;;6.40;93.90;;;;;;5083746;28;20237;-81
2022/05/02 03:00:19;;;;;;;2.67;2.40;;;6.40;93.90;;;;;;5075439;28;20290;-81
2022/05/02 03:02:46;;;;;;;3.53;2.60;;;6.30;94.00;;;;;;5078689;28;20702;-80
2022/05/02 03:07:59;;;;;;;3.90;2.93;;;6.10;94.00;;;;;;5076493;28;20257;-81
2022/05/02 03:10:26;;;;;;;4.27;3.00;;;6.10;94.10;;;;;;5076776;28;20737;-81
2022/05/02 03:12:54;;;;;;;13.13;11.53;;;6.00;94.10;;;;;;5080815;28;20662;-81
2022/05/02 03:15:21;;;;;;;5.73;5.13;;;6.00;94.40;;;;;;5079934;28;20287;-78
2022/05/02 03:17:48;;;;;;;4.63;3.20;;;5.90;94.50;;;;;;5080996;28;20320;-80
2022/05/02 03:20:16;;;;;;;12.40;11.30;;;5.90;94.60;;;;;;5074879;28;20226;-80
2022/05/02 03:22:42;;;;;;;11.40;10.33;;;5.80;94.80;;;;;;5075073;28;20221;-80
2022/05/02 03:25:09;;;;;;;7.13;6.53;;;5.80;94.90;;;;;;5080443;28;20225;-80
2022/05/02 03:27:36;;;;;;;5.00;3.80;;;5.70;95.10;;;;;;5084172;28;20226;-80
2022/05/02 03:30:03;;;;;;;3.83;3.00;;;5.80;95.20;;;;;;5087861;28;20532;-79
2022/05/02 03:32:30;;;;;;;7.50;6.80;;;5.70;95.30;;;;;;5083615;28;20229;-79
2022/05/02 03:34:57;;;;;;;4.37;3.97;;;5.70;95.40;;;;;;5084497;28;20219;-80
2022/05/02 03:37:25;;;;;;;14.73;13.43;;;5.70;95.50;;;;;;5078881;28;20227;-79
2022/05/02 03:39:51;;;;;;;10.47;7.83;;;5.70;95.60;;;;;;5078378;28;20253;-80
2022/05/02 03:42:18;;;;;;;4.60;3.33;;;5.70;95.40;;;;;;5080165;28;20438;-80
2022/05/02 03:44:45;;;;;;;4.07;2.80;;;5.70;95.60;;;;;;5084521;28;20758;-80
2022/05/02 03:47:12;;;;;;;3.33;2.80;;;5.60;95.30;;;;;;5082706;28;20245;-80
2022/05/02 03:49:39;;;;;;;6.10;3.07;;;5.60;95.00;;;;;;5082869;28;20233;-80
2022/05/02 03:52:06;;;;;;;3.70;2.67;;;5.60;95.00;;;;;;5081905;28;20607;-80
2022/05/02 03:54:35;;;;;;;4.10;2.77;;;5.60;95.20;;;;;;5079617;28;20219;-79
2022/05/02 03:57:01;;;;;;;3.83;2.80;;;5.50;95.50;;;;;;5085261;28;20222;-79
2022/05/02 03:59:28;;;;;;;4.03;3.27;;;5.50;95.50;;;;;;5085066;28;20809;-79
2022/05/02 04:01:55;;;;;;;6.47;3.20;;;5.50;95.50;;;;;;5083370;28;20297;-80
2022/05/02 04:04:21;;;;;;;4.00;3.17;;;5.40;95.60;;;;;;5082022;28;20234;-79
2022/05/02 04:06:48;;;;;;;3.80;3.37;;;5.40;95.70;;;;;;5082662;28;20339;-80
2022/05/02 04:09:15;;;;;;;4.07;3.20;;;5.40;95.70;;;;;;5078789;28;21011;-78
2022/05/02 04:11:43;;;;;;;4.70;3.20;;;5.40;95.90;;;;;;5082449;28;20259;-77
2022/05/02 04:14:10;;;;;;;4.83;3.00;;;5.40;96.20;;;;;;5076056;28;20226;-77
2022/05/02 04:16:37;;;;;;;5.53;3.47;;;5.50;96.30;;;;;;5080421;28;20343;-77
2022/05/02 04:19:04;;;;;;;4.57;3.70;;;5.60;96.40;;;;;;5084256;28;20676;-80
2022/05/02 04:21:31;;;;;;;5.80;3.50;;;5.60;96.50;;;;;;5079029;28;20237;-79
2022/05/02 04:23:57;;;;;;;5.10;3.37;;;5.70;96.50;;;;;;5080234;28;20226;-77
2022/05/02 04:26:25;;;;;;;5.03;3.60;;;5.80;96.60;;;;;;5080774;28;20234;-78
2022/05/02 04:28:53;;;;;;;6.57;3.10;;;5.80;96.60;;;;;;5082595;28;20226;-75
2022/05/02 04:31:19;;;;;;;3.80;2.93;;;5.90;96.60;;;;;;5081054;28;20236;-77
2022/05/02 04:33:46;;;;;;;4.57;3.03;;;6.00;96.60;;;;;;5081916;28;20306;-77
2022/05/02 04:36:13;;;;;;;5.47;4.40;;;6.00;96.60;;;;;;5081054;28;20735;-77
2022/05/02 04:38:39;;;;;;;6.33;3.80;;;6.10;96.60;;;;;;5081619;28;20867;-76
2022/05/02 04:41:06;;;;;;;4.93;3.57;;;6.20;96.60;;;;;;5077272;28;20218;-77
2022/05/02 04:43:33;;;;;;;4.87;3.80;;;6.30;96.60;;;;;;5077329;28;20240;-77
2022/05/02 04:46:02;;;;;;;4.90;3.30;;;6.30;96.40;;;;;;5083170;28;20241;-77
2022/05/02 04:48:28;;;;;;;6.57;3.47;;;6.40;96.40;;;;;;5081341;28;21899;-77
2022/05/02 04:50:55;;;;;;;5.07;3.87;;;6.50;96.40;;;;;;5080641;28;20966;-77
2022/05/02 04:53:22;;;;;;;4.83;3.00;;;6.50;96.40;;;;;;5078198;28;20223;-77
2022/05/02 04:55:49;;;;;;;5.27;3.20;;;6.60;96.40;;;;;;5080114;28;20238;-76
2022/05/02 04:58:16;;;;;;;7.40;4.00;;;6.70;96.40;;;;;;5079035;28;20797;-77
2022/05/02 05:00:43;;;;;;;4.17;3.10;;;6.80;96.40;;;;;;5074906;28;20706;-77
2022/05/02 05:03:12;;;;;;;6.07;3.70;;;6.90;96.40;;;;;;5077185;28;20223;-78
2022/05/02 05:05:38;;;;;;;6.47;3.80;;;6.90;96.30;;;;;;5076697;28;20988;-77
2022/05/02 05:08:06;;;;;;;4.77;3.17;;;7.00;96.30;;;;;;5075880;28;20288;-76
2022/05/02 05:10:37;;;;;;;5.23;3.67;;;7.10;96.20;;;;;;5074672;28;20678;-76
2022/05/02 05:13:07;;;;;;;4.73;3.50;;;7.20;96.30;;;;;;5078815;28;20964;-76
2022/05/02 05:19:02;;;;;;;3.40;3.10;;;7.40;96.40;;;;;;5073951;28;20727;-77
2022/05/02 05:21:41;;;;;;;6.00;3.67;;;7.50;96.00;;;;;;5071897;28;20309;-77
2022/05/02 05:24:30;;;;;;;5.27;3.37;;;7.70;95.80;;;;;;5078346;28;20229;-77
2022/05/02 05:27:04;;;;;;;7.37;3.77;;;7.80;96.00;;;;;;5078043;28;20788;-77
2022/05/02 05:29:40;;;;;;;7.50;3.40;;;7.90;95.80;;;;;;5093033;28;20229;-77
2022/05/02 05:32:21;;;;;;;4.83;3.60;;;8.00;95.80;;;;;;5077969;28;20226;-77
2022/05/02 05:34:58;;;;;;;7.03;3.53;;;8.20;95.90;;;;;;5075331;28;20713;-77
2022/05/02 05:37:57;;;;;;;7.17;3.70;;;8.30;95.70;;;;;;5078934;28;20533;-77
2022/05/02 05:40:28;;;;;;;6.80;3.67;;;8.50;95.60;;;;;;5074878;28;20689;-77
2022/05/02 05:43:23;;;;;;;6.43;3.47;;;8.60;95.40;;;;;;5083399;28;20226;-77
2022/05/02 05:45:59;;;;;;;5.70;3.40;;;8.80;94.90;;;;;;5079231;28;20221;-77
2022/05/02 05:48:37;;;;;;;5.90;3.70;;;8.90;94.90;;;;;;5078765;28;20237;-77
2022/05/02 05:51:24;;;;;;;5.50;3.50;;;9.00;94.90;;;;;;5079478;28;20290;-77
2022/05/02 05:53:58;;;;;;;5.03;3.03;;;9.10;94.90;;;;;;5075903;28;20238;-77
2022/05/02 05:56:40;;;;;;;6.23;2.80;;;9.20;94.20;;;;;;5083267;28;20704;-77
2022/05/02 05:59:09;;;;;;;4.50;3.50;;;9.40;94.30;;;;;;5082779;28;20763;-76
2022/05/02 06:01:50;;;;;;;4.87;3.00;;;9.50;94.30;;;;;;5079616;28;20303;-77
2022/05/02 06:04:23;;;;;;;6.17;3.40;;;9.70;94.10;;;;;;5078091;28;20254;-77
2022/05/02 06:06:51;;;;;;;8.57;3.83;;;9.90;94.00;;;;;;5083398;28;20295;-76
2022/05/02 06:09:20;;;;;;;6.07;3.33;;;10.10;94.00;;;;;;5083196;28;20903;-77
2022/05/02 06:11:50;;;;;;;7.00;3.60;;;10.20;93.90;;;;;;5080882;28;20239;-77
2022/05/02 06:14:20;;;;;;;5.97;3.23;;;10.40;93.60;;;;;;5082885;28;20270;-77
2022/05/02 06:19:35;;;;;;;6.87;3.27;;;10.80;92.70;;;;;;5080163;28;20269;-77
2022/05/02 06:22:04;;;;;;;3.43;2.50;;;11.00;92.50;;;;;;5085648;28;20226;-77
2022/05/02 06:24:33;;;;;;;3.50;2.47;;;11.20;91.00;;;;;;5082513;28;20239;-77
2022/05/02 06:27:02;;;;;;;2.90;1.80;;;11.30;90.80;;;;;;5077389;28;20275;-77
2022/05/02 06:29:29;;;;;;;5.30;2.57;;;11.60;90.40;;;;;;5081277;28;20234;-77
2022/05/02 06:31:59;;;;;;;3.67;2.60;;;11.70;90.10;;;;;;5082578;28;20222;-77
2022/05/02 06:34:29;;;;;;;3.17;2.07;;;11.80;89.30;;;;;;5078919;28;21044;-78
2022/05/02 06:37:16;;;;;;;2.30;1.80;;;12.00;88.10;;;;;;5076778;28;20225;-76
2022/05/02 06:39:57;;;;;;;5.83;2.07;;;12.10;86.60;;;;;;5075750;28;20238;-76
2022/05/02 06:42:32;;;;;;;4.03;2.10;;;12.30;85.80;;;;;;5083808;28;20246;-78
2022/05/02 06:45:19;;;;;;;2.87;1.80;;;12.50;85.90;;;;;;5083021;28;20214;-80
2022/05/02 06:48:07;;;;;;;2.87;1.80;;;12.70;84.90;;;;;;5077447;28;20228;-80
2022/05/02 06:50:37;;;;;;;3.77;1.60;;;12.80;83.20;;;;;;5078577;28;20231;-79
2022/05/02 06:53:22;;;;;;;2.17;1.50;;;13.00;83.50;;;;;;5082440;28;20572;-79
2022/05/02 06:55:54;;;;;;;3.53;1.73;;;13.20;81.70;;;;;;5079853;28;20317;-79
2022/05/02 06:58:39;;;;;;;2.87;1.70;;;13.40;81.60;;;;;;5078920;28;20244;-79
2022/05/02 07:01:19;;;;;;;4.70;1.67;;;13.50;80.10;;;;;;5084474;28;20291;-80
2022/05/02 07:04:05;;;;;;;1.40;1.30;;;13.70;80.40;;;;;;5081874;28;20230;-79
2022/05/02 07:06:43;;;;;;;5.00;1.50;;;13.90;78.50;;;;;;5086081;28;20223;-79
2022/05/02 07:09:20;;;;;;;1.97;1.43;;;14.10;77.80;;;;;;5084026;28;20230;-79
2022/05/02 07:12:00;;;;;;;2.43;1.50;;;14.40;77.60;;;;;;5087213;28;20343;-80
2022/05/02 07:14:35;;;;;;;2.50;1.43;;;14.80;77.60;;;;;;5084429;28;20246;-79
2022/05/02 07:17:08;;;;;;;1.47;1.20;;;15.30;76.30;;;;;;5086728;28;20252;-80
2022/05/02 07:19:48;;;;;;;2.00;1.20;;;15.90;71.30;;;;;;5088901;28;20241;-80
2022/05/02 07:22:19;;;;;;;3.07;1.10;;;16.60;72.10;;;;;;5082273;28;20234;-81
2022/05/02 07:24:57;;;;;;;2.10;1.10;;;17.30;70.70;;;;;;5086887;28;20253;-80
2022/05/02 07:27:40;;;;;;;1.85;1.20;;;17.90;69.20;;;;;;5088762;28;20268;-80
2022/05/02 07:30:09;;;;;;;3.78;1.10;;;18.60;66.70;;;;;;5082492;28;20226;-81
2022/05/02 07:32:36;;;;;;;2.08;1.27;;;19.20;66.90;;;;;;5083178;28;20238;-81
2022/05/02 07:35:04;;;;;;;3.90;1.60;;;19.70;62.60;;;;;;5086081;28;20245;-81
2022/05/02 07:37:32;;;;;;;1.85;1.10;;;20.20;61.80;;;;;;5083824;28;20227;-81
2022/05/02 07:40:01;;;;;;;2.33;1.30;;;20.50;61.30;;;;;;5087267;28;20218;-80
2022/05/02 07:42:33;;;;;;;2.72;1.40;;;20.90;59.30;;;;;;5082829;28;20230;-80
2022/05/02 07:45:01;;;;;;;2.17;1.30;;;21.30;58.60;;;;;;5085059;28;20782;-80
2022/05/02 07:47:32;;;;;;;2.03;1.30;;;21.70;58.20;;;;;;5083975;28;20239;-80
2022/05/02 07:49:59;;;;;;;2.63;1.27;;;22.00;57.60;;;;;;5085571;28;20691;-81
2022/05/02 07:52:27;;;;;;;2.10;1.23;;;22.40;56.90;;;;;;5087340;28;20306;-80
2022/05/02 07:54:58;;;;;;;2.58;1.33;;;22.80;56.10;;;;;;5084996;28;20227;-80
2022/05/02 07:57:28;;;;;;;1.67;1.40;;;23.20;54.80;;;;;;5086774;28;20259;-81
2022/05/02 07:59:58;;;;;;;2.42;1.60;;;23.50;53.20;;;;;;5085243;28;20593;-81
2022/05/02 08:02:25;;;;;;;2.65;1.45;;;23.90;52.80;;;;;;5082556;28;20234;-81
2022/05/02 08:04:53;;;;;;;1.90;1.30;;;24.10;52.20;;;;;;5086514;28;20678;-81
2022/05/02 08:07:25;;;;;;;2.65;1.63;;;24.30;50.40;;;;;;5085850;28;20230;-81
2022/05/02 08:10:17;;;;;;;2.03;1.42;;;24.30;50.40;;;;;;5084029;28;20222;-82
2022/05/02 08:12:53;;;;;;;2.30;1.75;;;24.40;49.50;;;;;;5084357;28;20254;-82
2022/05/02 08:15:25;;;;;;;4.10;1.95;;;24.50;49.20;;;;;;5082336;28;20371;-82
2022/05/02 08:18:16;;;;;;;2.30;1.52;;;24.60;48.60;;;;;;5086703;28;20254;-81
2022/05/02 08:20:51;;;;;;;3.65;3.10;;;24.60;48.00;;;;;;5084234;28;20226;-81
2022/05/02 08:29:27;;;;;;;4.72;2.28;;;24.70;46.80;;;;;;5082637;28;20233;-80
2022/05/02 08:32:06;;;;;;;3.38;2.15;;;24.80;46.10;;;;;;5083188;28;20938;-81
2022/05/02 08:34:43;;;;;;;4.97;2.80;;;24.80;45.40;;;;;;5085159;28;20308;-81
2022/05/02 08:37:26;;;;;;;3.30;2.45;;;24.70;45.80;;;;;;5085813;28;20780;-81
2022/05/02 08:40:02;;;;;;;5.22;2.78;;;24.70;45.20;;;;;;5086000;28;20268;-79
2022/05/02 08:42:57;;;;;;;3.22;2.80;;;24.80;45.20;;;;;;5085111;28;20226;-80
2022/05/02 08:45:44;;;;;;;5.75;3.45;;;24.90;45.10;;;;;;5085006;28;20368;-79
2022/05/02 08:48:44;;;;;;;5.35;2.70;;;25.10;45.80;;;;;;5085464;28;20288;-80
2022/05/02 08:51:42;;;;;;;3.50;2.92;;;25.30;45.50;;;;;;5088849;28;20215;-80
2022/05/02 08:54:31;;;;;;;3.63;3.05;;;25.60;44.30;;;;;;5084249;28;20225;-80
2022/05/02 08:57:41;;;;;;;3.45;2.78;;;25.80;44.00;;;;;;5086202;28;20271;-80
2022/05/02 09:00:09;;;;;;;3.00;2.47;;;26.10;43.60;;;;;;5085308;28;20291;-82
2022/05/02 09:03:14;;;;;;;4.82;3.30;;;26.40;44.80;;;;;;5090512;28;20230;-80
2022/05/02 09:05:51;;;;;;;5.10;3.55;;;26.70;43.70;;;;;;5084239;28;20227;-80
2022/05/02 09:08:48;;;;;;;5.43;3.92;;;26.90;42.60;;;;;;5083868;28;20257;-80
2022/05/02 09:11:32;;;;;;;5.88;3.50;;;27.00;40.60;;;;;;5085460;28;20637;-80
2022/05/02 09:15:04;;;;;;;4.32;3.53;;;27.10;41.90;;;;;;5081351;28;20245;-79
2022/05/02 09:18:00;;;;;;;4.85;3.70;;;27.20;42.40;;;;;;5016127;28;20257;-79
2022/05/02 09:20:54;;;;;;;5.65;4.13;;;27.30;40.50;;;;;;5020723;28;20243;-79
2022/05/02 09:24:14;;;;;;;5.32;3.63;;;27.40;40.30;;;;;;5065730;28;20233;-79
2022/05/02 09:27:28;;;;;;;5.60;5.07;;;27.40;40.70;;;;;;5081176;28;20211;-79
2022/05/02 09:30:15;;;;;;;5.63;5.07;;;27.60;39.70;;;;;;5009608;28;20764;-79
2022/05/02 09:32:48;;;;;;;5.70;5.00;;;27.60;39.00;;;;;;5018272;28;20260;-79
2022/05/02 09:35:19;;;;;;;7.38;4.97;;;27.60;39.00;;;;;;5055779;28;20219;-79
2022/05/02 09:38:22;;;;;;;5.63;5.07;;;27.60;39.10;;;;;;5081817;28;20288;-79
2022/05/02 09:40:50;;;;;;;6.35;5.15;;;27.50;39.50;;;;;;5084641;28;20222;-79
2022/05/02 09:49:33;;;;;;;8.43;5.22;;;27.40;38.50;;;;;;5085818;28;20219;-79
2022/05/02 09:49:54;;;;;;;7.30;4.88;;;27.20;38.80;;;;;;5084412;28;20230;-79
2022/05/02 09:52:29;;;;;;;6.95;5.57;;;27.10;39.10;;;;;;5038083;28;20223;-79
2022/05/02 09:58:32;;;;;;;6.50;4.72;;;27.00;38.10;;;;;;5075530;28;20222;-79
2022/05/02 10:01:10;;;;;;;6.72;5.05;;;26.80;38.00;;;;;;5078765;28;20288;-79
2022/05/02 10:03:39;;;;;;;5.95;5.35;;;26.70;38.90;;;;;;5078551;28;20514;-79
2022/05/02 10:06:10;;;;;;;6.97;5.30;;;26.60;38.30;;;;;;5078292;28;20227;-79
2022/05/02 10:08:53;;;;;;;5.50;4.90;;;26.50;38.20;;;;;;5075241;28;20220;-79
2022/05/02 10:11:35;;;;;;;10.32;5.25;;;26.40;37.90;;;;;;5073906;28;20237;-79
2022/05/02 10:14:25;;;;;;;9.15;5.03;;;26.30;38.50;;;;;;5081984;28;20321;-79
2022/05/02 10:16:56;;;;;;;5.25;4.32;;;26.20;38.40;;;;;;5083095;28;20311;-79
2022/05/02 10:19:41;;;;;;;5.10;4.10;;;26.10;38.80;;;;;;5079091;28;20313;-79
2022/05/02 10:22:23;;;;;;;5.63;4.43;;;25.90;37.90;;;;;;5092076;28;20215;-79
2022/05/02 10:25:02;;;;;;;7.07;4.57;;;25.80;38.00;;;;;;5078541;28;20311;-78
2022/05/02 10:27:58;;;;;;;5.57;4.60;;;25.70;38.60;;;;;;5076633;28;20249;-79
2022/05/02 10:30:34;;;;;;;4.63;4.07;;;25.70;38.40;;;;;;5077688;28;20234;-79
2022/05/02 10:33:03;;;;;;;7.50;5.32;;;25.70;38.80;;;;;;5073834;28;20223;-79
2022/05/02 10:35:30;;;;;;;6.30;4.57;;;25.80;38.40;;;;;;5082069;28;20438;-79
2022/05/02 10:37:58;;;;;;;6.72;4.97;;;25.80;38.70;;;;;;5080637;28;20235;-79
2022/05/02 10:40:33;;;;;;;5.95;4.80;;;25.90;39.00;;;;;;5083187;28;20231;-79
2022/05/02 10:43:05;;;;;;;6.95;4.95;;;26.00;38.60;;;;;;5077058;28;20836;-79
2022/05/02 10:45:34;;;;;;;6.18;4.97;;;26.00;38.20;;;;;;5086244;28;20287;-79
2022/05/02 10:48:15;;;;;;;6.50;5.90;;;25.90;38.20;;;;;;5076295;28;20220;-79
2022/05/02 10:50:49;;;;;;;7.38;5.28;;;25.80;37.70;;;;;;5080510;28;20716;-79
2022/05/02 10:53:31;;;;;;;7.20;5.85;;;25.70;37.90;;;;;;5077418;28;20230;-79
2022/05/02 10:56:19;;;;;;;6.20;5.30;;;25.70;37.70;;;;;;5075738;28;20226;-79
2022/05/02 10:58:48;;;;;;;6.65;5.03;;;25.70;37.30;;;;;;5083242;28;20279;-79
2022/05/02 11:01:28;;;;;;;6.22;4.82;;;25.80;38.00;;;;;;5077154;28;20225;-79
2022/05/02 11:04:09;;;;;;;5.28;4.78;;;25.90;38.20;;;;;;5083238;28;20601;-79
2022/05/02 11:06:56;;;;;;;6.20;5.20;;;26.10;37.50;;;;;;5081135;28;20303;-80
2022/05/02 11:09:34;;;;;;;5.30;4.47;;;26.20;37.70;;;;;;5077811;28;20886;-79
2022/05/02 11:12:03;;;;;;;5.85;4.78;;;26.10;37.50;;;;;;5073386;28;20230;-79
2022/05/02 11:14:44;;;;;;;5.32;4.50;;;26.10;37.90;;;;;;5070476;28;20224;-79
2022/05/02 11:17:23;;;;;;;6.40;4.47;;;26.00;37.80;;;;;;5078432;28;20226;-80
2022/05/02 11:22:56;;;;;;;6.97;5.45;;;26.00;37.50;;;;;;5080990;28;20306;-79
2022/05/02 11:25:27;;;;;;;5.65;4.55;;;25.90;37.20;;;;;;5075599;28;20554;-79
2022/05/02 11:28:04;;;;;;;5.28;4.75;;;25.70;37.40;;;;;;5081701;28;20526;-79
2022/05/02 11:30:40;;;;;;;6.07;5.47;;;25.40;37.50;;;;;;5074512;28;20251;-80
2022/05/02 11:33:13;;;;;;;6.30;5.60;;;25.20;37.60;;;;;;5078198;28;20250;-79
2022/05/02 11:35:46;;;;;;;5.70;5.10;;;25.10;37.60;;;;;;5076105;28;20226;-79
2022/05/02 11:38:32;;;;;;;6.47;4.82;;;25.00;38.20;;;;;;5074695;28;20238;-79
2022/05/02 11:41:06;;;;;;;6.68;5.43;;;25.00;37.90;;;;;;5077613;28;20219;-79
2022/05/02 11:43:36;;;;;;;6.75;5.35;;;24.90;38.00;;;;;;5068699;28;20219;-79
2022/05/02 11:46:20;;;;;;;6.82;4.80;;;24.70;37.90;;;;;;5081668;28;20226;-79
2022/05/02 11:49:05;;;;;;;6.00;4.63;;;24.50;38.00;;;;;;5078465;28;20876;-79
2022/05/02 11:51:43;;;;;;;5.75;5.10;;;24.30;38.80;;;;;;5072883;28;20223;-79
2022/05/02 11:54:32;;;;;;;5.50;4.97;;;24.20;38.80;;;;;;5078002;28;20226;-80
2022/05/02 11:57:07;;;;;;;5.82;5.20;;;24.20;39.00;;;;;;5081693;28;20246;-79
2022/05/02 11:59:44;;;;;;;6.20;5.18;;;24.10;39.00;;;;;;5079242;28;20226;-79
2022/05/02 12:02:22;;;;;;;5.70;5.15;;;24.10;38.90;;;;;;5083555;28;20236;-79
2022/05/02 12:04:52;;;;;;;6.90;5.78;;;24.00;38.80;;;;;;5083647;28;20227;-79
2022/05/02 12:07:29;;;;;;;5.63;4.88;;;23.80;39.00;;;;;;5078034;28;20243;-79
2022/05/02 12:10:02;;;;;;;5.07;4.57;;;23.70;39.20;;;;;;5080251;28;20602;-79
2022/05/02 12:12:31;;;;;;;7.75;5.03;;;23.70;39.50;;;;;;5081686;28;20257;-79
2022/05/02 12:15:01;;;;;;;6.30;4.60;;;23.80;40.10;;;;;;5083596;28;20768;-79
2022/05/02 12:17:29;;;;;;;6.03;4.50;;;24.00;40.00;;;;;;5082691;28;20245;-79
2022/05/02 12:19:56;;;;;;;5.55;4.97;;;24.10;39.40;;;;;;5082488;28;20503;-79
2022/05/02 12:22:27;;;;;;;5.90;5.10;;;24.20;39.10;;;;;;5083125;28;20222;-79
2022/05/02 12:25:03;;;;;;;5.55;4.97;;;24.10;38.70;;;;;;5084161;28;20222;-79
2022/05/02 12:27:31;;;;;;;4.82;4.35;;;23.90;38.80;;;;;;5085898;28;20305;-79
2022/05/02 12:30:01;;;;;;;7.00;5.22;;;23.60;39.00;;;;;;5084431;28;20651;-79
2022/05/02 12:32:33;;;;;;;5.70;5.10;;;23.40;39.00;;;;;;5085380;28;20416;-79
2022/05/02 12:35:03;;;;;;;6.00;5.03;;;23.10;39.60;;;;;;5097358;28;20314;-79
2022/05/02 12:37:33;;;;;;;6.43;4.95;;;23.00;39.80;;;;;;5079637;28;20227;-79
2022/05/02 12:40:06;;;;;;;6.57;4.88;;;22.80;39.60;;;;;;5081735;28;20230;-79
2022/05/02 12:42:44;;;;;;;5.70;4.30;;;22.70;39.90;;;;;;5084133;28;20711;-79
2022/05/02 12:45:13;;;;;;;6.53;5.05;;;22.60;40.50;;;;;;5084277;28;20573;-79
2022/05/02 12:47:49;;;;;;;5.00;4.20;;;22.50;40.30;;;;;;5080481;28;20265;-79
2022/05/02 12:50:18;;;;;;;7.20;5.63;;;22.50;40.90;;;;;;5077931;28;20226;-78
2022/05/02 12:52:46;;;;;;;5.07;4.35;;;22.70;41.10;;;;;;5084696;28;20226;-80
2022/05/02 12:55:14;;;;;;;7.32;5.13;;;22.90;40.90;;;;;;5081443;28;20866;-80
2022/05/02 13:00:32;;;;;;;5.82;4.05;;;23.20;40.70;;;;;;5083572;28;20643;-80
2022/05/02 13:03:16;;;;;;;5.05;4.55;;;23.40;40.60;;;;;;5080786;28;20876;-80
2022/05/02 13:05:52;;;;;;;7.13;4.57;;;23.40;40.30;;;;;;5082772;28;20227;-79
2022/05/02 13:08:20;;;;;;;5.75;5.00;;;23.50;40.20;;;;;;5079702;28;20272;-78
2022/05/02 13:10:51;;;;;;;5.03;4.53;;;23.50;40.00;;;;;;5076439;28;20244;-78
2022/05/02 13:13:19;;;;;;;5.80;4.05;;;23.40;39.90;;;;;;5083804;28;20309;-78
2022/05/02 13:15:48;;;;;;;4.50;3.97;;;23.30;40.30;;;;;;5077790;28;20226;-78
2022/05/02 13:18:19;;;;;;;5.53;4.10;;;23.30;40.50;;;;;;5084401;28;20288;-78
2022/05/02 13:21:00;;;;;;;6.25;4.72;;;23.30;40.70;;;;;;5085842;28;20226;-79
2022/05/02 13:23:37;;;;;;;5.30;4.10;;;23.40;40.60;;;;;;5082997;28;20313;-78
2022/05/02 13:26:14;;;;;;;5.60;4.50;;;23.50;40.50;;;;;;5075960;28;20227;-79
2022/05/02 13:28:51;;;;;;;6.78;5.20;;;23.60;40.30;;;;;;5078967;28;20230;-78
2022/05/02 13:31:26;;;;;;;5.90;5.05;;;23.70;39.60;;;;;;5078167;28;20359;-78
2022/05/02 13:33:59;;;;;;;5.47;4.55;;;23.70;39.50;;;;;;5083368;28;20226;-79
2022/05/02 13:36:27;;;;;;;5.53;4.97;;;23.60;39.80;;;;;;5075885;28;20221;-78
2022/05/02 13:39:03;;;;;;;5.05;4.57;;;23.50;40.00;;;;;;5082102;28;21440;-78
2022/05/02 13:41:36;;;;;;;7.35;4.75;;;23.50;40.00;;;;;;5067055;28;20413;-78
2022/05/02 13:44:12;;;;;;;5.15;4.13;;;23.40;40.00;;;;;;5068975;28;20314;-78
2022/05/02 13:46:59;;;;;;;6.60;4.63;;;23.40;40.50;;;;;;5082359;28;20249;-78
2022/05/02 13:49:46;;;;;;;6.10;5.03;;;23.30;40.20;;;;;;5082812;28;20233;-79